sensor_id;sensor_type;location;lat;lon;timestamp;temperature;humidity
46758;DHT22;32509;47.750;-3.396;2023-08-12T00:01:56;19.30;99.90
46758;DHT22;32509;47.750;-3.396;2023-08-12T00:04:22;19.30;99.90
46758;DHT22;32509;47.750;-3.396;2023-08-12T00:06:48;19.30;99.90
46758;DHT22;32509;47.750;-3.396;2023-08-12T00:09:13;19.20;99.90
46758;DHT22;32509;47.750;-3.396;2023-08-12T00:11:40;19.20;99.90
46758;DHT22;32509;47.750;-3.396;2023-08-12T00:14:06;19.20;99.90
46758;DHT22;32509;47.750;-3.396;2023-08-12T00:16:32;19.20;99.90
46758;DHT22;32509;47.750;-3.396;2023-08-12T00:18:58;19.20;99.90
46758;DHT22;32509;47.750;-3.396;2023-08-12T00:21:25;19.20;99.90
46758;DHT22;32509;47.750;-3.396;2023-08-12T00:23:50;19.10;99.90
46758;DHT22;32509;47.750;-3.396;2023-08-12T00:26:16;19.10;99.90
46758;DHT22;32509;47.750;-3.396;2023-08-12T00:28:42;19.10;99.90
46758;DHT22;32509;47.750;-3.396;2023-08-12T00:31:08;19.10;99.90
46758;DHT22;32509;47.750;-3.396;2023-08-12T00:33:34;19.00;99.90
46758;DHT22;32509;47.750;-3.396;2023-08-12T00:36:00;19.00;99.90
46758;DHT22;32509;47.750;-3.396;2023-08-12T00:38:25;19.00;99.90
46758;DHT22;32509;47.750;-3.396;2023-08-12T00:40:51;19.00;99.90
46758;DHT22;32509;47.750;-3.396;2023-08-12T00:43:17;19.00;99.90
46758;DHT22;32509;47.750;-3.396;2023-08-12T00:45:43;19.00;99.90
46758;DHT22;32509;47.750;-3.396;2023-08-12T00:48:09;19.00;99.90
46758;DHT22;32509;47.750;-3.396;2023-08-12T00:50:36;19.00;99.90
46758;DHT22;32509;47.750;-3.396;2023-08-12T00:53:03;19.00;99.90
46758;DHT22;32509;47.750;-3.396;2023-08-12T00:55:32;19.00;99.90
46758;DHT22;32509;47.750;-3.396;2023-08-12T00:57:58;19.00;99.90
46758;DHT22;32509;47.750;-3.396;2023-08-12T01:00:24;19.00;99.90
46758;DHT22;32509;47.750;-3.396;2023-08-12T01:02:51;19.00;99.90
46758;DHT22;32509;47.750;-3.396;2023-08-12T01:05:18;19.00;99.90
46758;DHT22;32509;47.750;-3.396;2023-08-12T01:07:44;19.00;99.90
46758;DHT22;32509;47.750;-3.396;2023-08-12T01:10:12;19.00;99.90
46758;DHT22;32509;47.750;-3.396;2023-08-12T01:13:13;19.00;99.90
46758;DHT22;32509;47.750;-3.396;2023-08-12T01:15:43;19.00;99.90
46758;DHT22;32509;47.750;-3.396;2023-08-12T01:18:10;19.00;99.90
46758;DHT22;32509;47.750;-3.396;2023-08-12T01:20:36;19.00;99.90
46758;DHT22;32509;47.750;-3.396;2023-08-12T01:25:36;19.00;99.90
46758;DHT22;32509;47.750;-3.396;2023-08-12T01:28:02;19.00;99.90
46758;DHT22;32509;47.750;-3.396;2023-08-12T01:30:29;19.00;99.90
46758;DHT22;32509;47.750;-3.396;2023-08-12T01:33:09;19.00;99.90
46758;DHT22;32509;47.750;-3.396;2023-08-12T01:35:50;19.00;99.90
46758;DHT22;32509;47.750;-3.396;2023-08-12T01:38:17;19.00;99.90
46758;DHT22;32509;47.750;-3.396;2023-08-12T01:40:44;19.00;99.90
46758;DHT22;32509;47.750;-3.396;2023-08-12T01:43:11;19.00;99.90
46758;DHT22;32509;47.750;-3.396;2023-08-12T01:45:37;19.00;99.90
46758;DHT22;32509;47.750;-3.396;2023-08-12T01:48:03;19.00;99.90
46758;DHT22;32509;47.750;-3.396;2023-08-12T01:50:29;19.00;99.90
46758;DHT22;32509;47.750;-3.396;2023-08-12T01:52:55;19.00;99.90
46758;DHT22;32509;47.750;-3.396;2023-08-12T01:55:21;19.00;99.90
46758;DHT22;32509;47.750;-3.396;2023-08-12T01:57:47;19.00;99.90
46758;DHT22;32509;47.750;-3.396;2023-08-12T02:00:13;19.00;99.90
46758;DHT22;32509;47.750;-3.396;2023-08-12T02:02:39;19.00;99.90
46758;DHT22;32509;47.750;-3.396;2023-08-12T02:05:05;19.00;99.90
46758;DHT22;32509;47.750;-3.396;2023-08-12T02:07:30;19.00;99.90
46758;DHT22;32509;47.750;-3.396;2023-08-12T02:09:56;19.00;99.90
46758;DHT22;32509;47.750;-3.396;2023-08-12T02:12:22;19.00;99.90
46758;DHT22;32509;47.750;-3.396;2023-08-12T02:14:48;18.90;99.90
46758;DHT22;32509;47.750;-3.396;2023-08-12T02:17:13;19.00;99.90
46758;DHT22;32509;47.750;-3.396;2023-08-12T02:19:39;19.00;99.90
46758;DHT22;32509;47.750;-3.396;2023-08-12T02:22:05;19.00;99.90
46758;DHT22;32509;47.750;-3.396;2023-08-12T02:24:31;19.00;99.90
46758;DHT22;32509;47.750;-3.396;2023-08-12T02:26:56;18.90;99.90
46758;DHT22;32509;47.750;-3.396;2023-08-12T02:29:22;19.00;99.90
46758;DHT22;32509;47.750;-3.396;2023-08-12T02:31:48;18.90;99.90
46758;DHT22;32509;47.750;-3.396;2023-08-12T02:34:14;19.00;99.90
46758;DHT22;32509;47.750;-3.396;2023-08-12T02:36:39;19.00;99.90
46758;DHT22;32509;47.750;-3.396;2023-08-12T02:39:05;19.00;99.90
46758;DHT22;32509;47.750;-3.396;2023-08-12T02:41:31;19.00;99.90
46758;DHT22;32509;47.750;-3.396;2023-08-12T02:43:57;19.00;99.90
46758;DHT22;32509;47.750;-3.396;2023-08-12T02:46:23;19.00;99.90
46758;DHT22;32509;47.750;-3.396;2023-08-12T02:48:50;19.00;99.90
46758;DHT22;32509;47.750;-3.396;2023-08-12T02:51:16;18.90;99.90
46758;DHT22;32509;47.750;-3.396;2023-08-12T02:53:42;19.00;99.90
46758;DHT22;32509;47.750;-3.396;2023-08-12T02:56:08;19.00;99.90
46758;DHT22;32509;47.750;-3.396;2023-08-12T02:58:33;19.00;99.90
46758;DHT22;32509;47.750;-3.396;2023-08-12T03:00:59;19.00;99.90
46758;DHT22;32509;47.750;-3.396;2023-08-12T03:03:25;19.00;99.90
46758;DHT22;32509;47.750;-3.396;2023-08-12T03:05:51;19.00;99.90
46758;DHT22;32509;47.750;-3.396;2023-08-12T03:08:17;19.00;99.90
46758;DHT22;32509;47.750;-3.396;2023-08-12T03:10:44;19.00;99.90
46758;DHT22;32509;47.750;-3.396;2023-08-12T03:13:10;19.00;99.90
46758;DHT22;32509;47.750;-3.396;2023-08-12T03:15:39;19.00;99.90
46758;DHT22;32509;47.750;-3.396;2023-08-12T03:18:05;19.00;99.90
46758;DHT22;32509;47.750;-3.396;2023-08-12T03:20:31;19.00;99.90
46758;DHT22;32509;47.750;-3.396;2023-08-12T03:22:57;19.00;99.90
46758;DHT22;32509;47.750;-3.396;2023-08-12T03:25:22;19.00;99.90
46758;DHT22;32509;47.750;-3.396;2023-08-12T03:27:48;19.00;99.90
46758;DHT22;32509;47.750;-3.396;2023-08-12T03:30:14;19.00;99.90
46758;DHT22;32509;47.750;-3.396;2023-08-12T03:32:40;19.00;99.90
46758;DHT22;32509;47.750;-3.396;2023-08-12T03:35:06;19.00;99.90
46758;DHT22;32509;47.750;-3.396;2023-08-12T03:37:31;19.00;99.90
46758;DHT22;32509;47.750;-3.396;2023-08-12T03:39:57;19.00;99.90
46758;DHT22;32509;47.750;-3.396;2023-08-12T03:42:26;19.00;99.90
46758;DHT22;32509;47.750;-3.396;2023-08-12T03:44:52;19.00;99.90
46758;DHT22;32509;47.750;-3.396;2023-08-12T03:47:17;19.00;99.90
46758;DHT22;32509;47.750;-3.396;2023-08-12T03:49:47;19.00;99.90
46758;DHT22;32509;47.750;-3.396;2023-08-12T03:52:13;19.00;99.90
46758;DHT22;32509;47.750;-3.396;2023-08-12T03:54:39;19.00;99.90
46758;DHT22;32509;47.750;-3.396;2023-08-12T03:57:04;19.00;99.90
46758;DHT22;32509;47.750;-3.396;2023-08-12T03:59:30;19.00;99.90
46758;DHT22;32509;47.750;-3.396;2023-08-12T04:01:56;19.00;99.90
46758;DHT22;32509;47.750;-3.396;2023-08-12T04:04:23;19.00;99.90
46758;DHT22;32509;47.750;-3.396;2023-08-12T04:06:49;19.00;99.90
46758;DHT22;32509;47.750;-3.396;2023-08-12T04:09:17;19.00;99.90
46758;DHT22;32509;47.750;-3.396;2023-08-12T04:11:44;19.00;99.90
46758;DHT22;32509;47.750;-3.396;2023-08-12T04:14:10;19.00;99.90
46758;DHT22;32509;47.750;-3.396;2023-08-12T04:16:36;19.00;99.90
46758;DHT22;32509;47.750;-3.396;2023-08-12T04:19:02;19.10;99.90
46758;DHT22;32509;47.750;-3.396;2023-08-12T04:21:28;19.00;99.90
46758;DHT22;32509;47.750;-3.396;2023-08-12T04:23:54;19.00;99.90
46758;DHT22;32509;47.750;-3.396;2023-08-12T04:26:19;19.00;99.90
46758;DHT22;32509;47.750;-3.396;2023-08-12T04:28:45;19.00;99.90
46758;DHT22;32509;47.750;-3.396;2023-08-12T04:31:11;19.00;99.90
46758;DHT22;32509;47.750;-3.396;2023-08-12T04:33:37;19.00;99.90
46758;DHT22;32509;47.750;-3.396;2023-08-12T04:36:02;19.00;99.90
46758;DHT22;32509;47.750;-3.396;2023-08-12T04:38:28;19.00;99.90
46758;DHT22;32509;47.750;-3.396;2023-08-12T04:40:54;19.00;99.90
46758;DHT22;32509;47.750;-3.396;2023-08-12T04:43:20;19.00;99.90
46758;DHT22;32509;47.750;-3.396;2023-08-12T04:45:46;19.00;99.90
46758;DHT22;32509;47.750;-3.396;2023-08-12T04:48:13;19.00;99.90
46758;DHT22;32509;47.750;-3.396;2023-08-12T04:50:39;19.00;99.90
46758;DHT22;32509;47.750;-3.396;2023-08-12T04:53:05;19.00;99.90
46758;DHT22;32509;47.750;-3.396;2023-08-12T04:55:31;19.00;99.90
46758;DHT22;32509;47.750;-3.396;2023-08-12T04:57:57;19.00;99.90
46758;DHT22;32509;47.750;-3.396;2023-08-12T05:00:23;19.00;99.90
46758;DHT22;32509;47.750;-3.396;2023-08-12T05:02:49;18.90;99.90
46758;DHT22;32509;47.750;-3.396;2023-08-12T05:05:15;19.00;99.90
46758;DHT22;32509;47.750;-3.396;2023-08-12T05:07:41;19.00;99.90
46758;DHT22;32509;47.750;-3.396;2023-08-12T05:10:07;18.90;99.90
46758;DHT22;32509;47.750;-3.396;2023-08-12T05:12:33;18.90;99.90
46758;DHT22;32509;47.750;-3.396;2023-08-12T05:14:58;18.90;99.90
46758;DHT22;32509;47.750;-3.396;2023-08-12T05:17:24;18.90;99.90
46758;DHT22;32509;47.750;-3.396;2023-08-12T05:19:50;18.90;99.90
46758;DHT22;32509;47.750;-3.396;2023-08-12T05:22:16;18.80;99.90
46758;DHT22;32509;47.750;-3.396;2023-08-12T05:24:42;18.80;99.90
46758;DHT22;32509;47.750;-3.396;2023-08-12T05:27:08;18.80;99.90
46758;DHT22;32509;47.750;-3.396;2023-08-12T05:29:33;18.80;99.90
46758;DHT22;32509;47.750;-3.396;2023-08-12T05:31:59;18.80;99.90
46758;DHT22;32509;47.750;-3.396;2023-08-12T05:34:25;18.80;99.90
46758;DHT22;32509;47.750;-3.396;2023-08-12T05:36:51;18.80;99.90
46758;DHT22;32509;47.750;-3.396;2023-08-12T05:39:17;18.90;99.90
46758;DHT22;32509;47.750;-3.396;2023-08-12T05:41:43;18.80;99.90
46758;DHT22;32509;47.750;-3.396;2023-08-12T05:44:10;18.80;99.90
46758;DHT22;32509;47.750;-3.396;2023-08-12T05:46:36;18.90;99.90
46758;DHT22;32509;47.750;-3.396;2023-08-12T05:49:01;18.90;99.90
46758;DHT22;32509;47.750;-3.396;2023-08-12T05:51:27;18.90;99.90
46758;DHT22;32509;47.750;-3.396;2023-08-12T05:53:53;18.90;99.90
46758;DHT22;32509;47.750;-3.396;2023-08-12T05:56:19;18.90;99.90
46758;DHT22;32509;47.750;-3.396;2023-08-12T05:58:44;18.90;99.90
46758;DHT22;32509;47.750;-3.396;2023-08-12T06:01:10;18.90;99.90
46758;DHT22;32509;47.750;-3.396;2023-08-12T06:03:36;18.90;99.90
46758;DHT22;32509;47.750;-3.396;2023-08-12T06:06:02;18.90;99.90
46758;DHT22;32509;47.750;-3.396;2023-08-12T06:08:28;18.90;99.90
46758;DHT22;32509;47.750;-3.396;2023-08-12T06:10:54;18.90;99.90
46758;DHT22;32509;47.750;-3.396;2023-08-12T06:13:20;19.00;99.90
46758;DHT22;32509;47.750;-3.396;2023-08-12T06:15:45;19.00;99.90
46758;DHT22;32509;47.750;-3.396;2023-08-12T06:18:11;19.00;99.90
46758;DHT22;32509;47.750;-3.396;2023-08-12T06:20:37;19.00;99.90
46758;DHT22;32509;47.750;-3.396;2023-08-12T06:23:03;19.00;99.90
46758;DHT22;32509;47.750;-3.396;2023-08-12T06:25:29;19.00;99.90
46758;DHT22;32509;47.750;-3.396;2023-08-12T06:27:54;19.00;99.90
46758;DHT22;32509;47.750;-3.396;2023-08-12T06:30:20;19.00;99.90
46758;DHT22;32509;47.750;-3.396;2023-08-12T06:32:46;19.00;99.90
46758;DHT22;32509;47.750;-3.396;2023-08-12T06:35:12;19.00;99.90
46758;DHT22;32509;47.750;-3.396;2023-08-12T06:37:37;19.00;99.90
46758;DHT22;32509;47.750;-3.396;2023-08-12T06:40:03;19.10;99.90
46758;DHT22;32509;47.750;-3.396;2023-08-12T06:42:29;19.00;99.90
46758;DHT22;32509;47.750;-3.396;2023-08-12T06:44:57;19.10;99.90
46758;DHT22;32509;47.750;-3.396;2023-08-12T06:47:24;19.10;99.90
46758;DHT22;32509;47.750;-3.396;2023-08-12T06:49:51;19.10;99.90
46758;DHT22;32509;47.750;-3.396;2023-08-12T06:52:17;19.10;99.90
46758;DHT22;32509;47.750;-3.396;2023-08-12T06:54:45;19.10;99.90
46758;DHT22;32509;47.750;-3.396;2023-08-12T06:57:11;19.10;99.90
46758;DHT22;32509;47.750;-3.396;2023-08-12T06:59:38;19.20;99.90
46758;DHT22;32509;47.750;-3.396;2023-08-12T07:02:04;19.20;99.90
46758;DHT22;32509;47.750;-3.396;2023-08-12T07:04:30;19.10;99.90
46758;DHT22;32509;47.750;-3.396;2023-08-12T07:06:55;19.20;99.90
46758;DHT22;32509;47.750;-3.396;2023-08-12T07:09:21;19.20;99.90
46758;DHT22;32509;47.750;-3.396;2023-08-12T07:11:47;19.20;99.90
46758;DHT22;32509;47.750;-3.396;2023-08-12T07:14:13;19.20;99.90
46758;DHT22;32509;47.750;-3.396;2023-08-12T07:16:38;19.20;99.90
46758;DHT22;32509;47.750;-3.396;2023-08-12T07:19:04;19.20;99.90
46758;DHT22;32509;47.750;-3.396;2023-08-12T07:21:30;19.20;99.90
46758;DHT22;32509;47.750;-3.396;2023-08-12T07:23:56;19.20;99.90
46758;DHT22;32509;47.750;-3.396;2023-08-12T07:26:22;19.20;99.90
46758;DHT22;32509;47.750;-3.396;2023-08-12T07:28:48;19.20;99.90
46758;DHT22;32509;47.750;-3.396;2023-08-12T07:31:14;19.20;99.90
46758;DHT22;32509;47.750;-3.396;2023-08-12T07:33:39;19.20;99.90
46758;DHT22;32509;47.750;-3.396;2023-08-12T07:36:05;19.20;99.90
46758;DHT22;32509;47.750;-3.396;2023-08-12T07:38:31;19.30;99.90
46758;DHT22;32509;47.750;-3.396;2023-08-12T07:40:57;19.30;99.90
46758;DHT22;32509;47.750;-3.396;2023-08-12T07:43:23;19.30;99.90
46758;DHT22;32509;47.750;-3.396;2023-08-12T07:45:52;19.30;99.90
46758;DHT22;32509;47.750;-3.396;2023-08-12T07:48:19;19.30;99.90
46758;DHT22;32509;47.750;-3.396;2023-08-12T07:50:45;19.30;99.90
46758;DHT22;32509;47.750;-3.396;2023-08-12T07:53:14;19.40;99.90
46758;DHT22;32509;47.750;-3.396;2023-08-12T07:55:41;19.40;99.90
46758;DHT22;32509;47.750;-3.396;2023-08-12T07:58:07;19.30;99.90
46758;DHT22;32509;47.750;-3.396;2023-08-12T08:00:33;19.40;99.90
46758;DHT22;32509;47.750;-3.396;2023-08-12T08:02:59;19.40;99.90
46758;DHT22;32509;47.750;-3.396;2023-08-12T08:05:25;19.40;99.90
46758;DHT22;32509;47.750;-3.396;2023-08-12T08:07:51;19.40;99.90
46758;DHT22;32509;47.750;-3.396;2023-08-12T08:10:17;19.40;99.90
46758;DHT22;32509;47.750;-3.396;2023-08-12T08:12:45;19.40;99.90
46758;DHT22;32509;47.750;-3.396;2023-08-12T08:15:11;19.40;99.90
46758;DHT22;32509;47.750;-3.396;2023-08-12T08:17:37;19.40;99.90
46758;DHT22;32509;47.750;-3.396;2023-08-12T08:20:06;19.40;99.90
46758;DHT22;32509;47.750;-3.396;2023-08-12T08:22:32;19.50;99.90
46758;DHT22;32509;47.750;-3.396;2023-08-12T08:24:58;19.50;99.90
46758;DHT22;32509;47.750;-3.396;2023-08-12T08:27:27;19.50;99.90
46758;DHT22;32509;47.750;-3.396;2023-08-12T08:29:53;19.50;99.90
46758;DHT22;32509;47.750;-3.396;2023-08-12T08:32:19;19.50;99.90
46758;DHT22;32509;47.750;-3.396;2023-08-12T08:34:47;19.60;99.90
46758;DHT22;32509;47.750;-3.396;2023-08-12T08:37:13;19.60;99.90
46758;DHT22;32509;47.750;-3.396;2023-08-12T08:39:38;19.60;99.90
46758;DHT22;32509;47.750;-3.396;2023-08-12T08:42:05;19.50;99.90
46758;DHT22;32509;47.750;-3.396;2023-08-12T08:44:33;19.60;99.90
46758;DHT22;32509;47.750;-3.396;2023-08-12T08:46:59;19.60;99.90
46758;DHT22;32509;47.750;-3.396;2023-08-12T08:49:28;19.60;99.90
46758;DHT22;32509;47.750;-3.396;2023-08-12T08:51:54;19.60;99.90
46758;DHT22;32509;47.750;-3.396;2023-08-12T08:54:20;19.60;99.90
46758;DHT22;32509;47.750;-3.396;2023-08-12T08:56:48;19.70;99.90
46758;DHT22;32509;47.750;-3.396;2023-08-12T08:59:15;19.70;99.90
46758;DHT22;32509;47.750;-3.396;2023-08-12T09:01:42;19.70;99.90
46758;DHT22;32509;47.750;-3.396;2023-08-12T09:04:09;19.70;99.90
46758;DHT22;32509;47.750;-3.396;2023-08-12T09:06:36;19.70;99.90
46758;DHT22;32509;47.750;-3.396;2023-08-12T09:09:07;19.70;99.90
46758;DHT22;32509;47.750;-3.396;2023-08-12T09:11:38;19.70;99.90
46758;DHT22;32509;47.750;-3.396;2023-08-12T09:14:05;19.80;99.90
46758;DHT22;32509;47.750;-3.396;2023-08-12T09:16:30;19.70;99.90
46758;DHT22;32509;47.750;-3.396;2023-08-12T09:18:57;19.80;99.90
46758;DHT22;32509;47.750;-3.396;2023-08-12T09:21:23;19.80;99.90
46758;DHT22;32509;47.750;-3.396;2023-08-12T09:23:49;19.80;99.90
46758;DHT22;32509;47.750;-3.396;2023-08-12T09:26:17;19.80;99.90
46758;DHT22;32509;47.750;-3.396;2023-08-12T09:28:44;19.90;99.90
46758;DHT22;32509;47.750;-3.396;2023-08-12T09:31:26;19.90;99.90
46758;DHT22;32509;47.750;-3.396;2023-08-12T09:34:00;19.90;99.90
46758;DHT22;32509;47.750;-3.396;2023-08-12T09:36:29;19.90;99.90
46758;DHT22;32509;47.750;-3.396;2023-08-12T09:38:56;19.90;99.90
46758;DHT22;32509;47.750;-3.396;2023-08-12T09:41:25;19.90;99.90
46758;DHT22;32509;47.750;-3.396;2023-08-12T09:43:51;20.00;99.90
46758;DHT22;32509;47.750;-3.396;2023-08-12T09:46:24;20.00;99.90
46758;DHT22;32509;47.750;-3.396;2023-08-12T09:48:51;20.00;99.90
46758;DHT22;32509;47.750;-3.396;2023-08-12T09:51:20;20.00;99.90
46758;DHT22;32509;47.750;-3.396;2023-08-12T09:53:49;20.00;99.90
46758;DHT22;32509;47.750;-3.396;2023-08-12T09:56:18;20.10;99.90
46758;DHT22;32509;47.750;-3.396;2023-08-12T09:58:48;20.10;99.90
46758;DHT22;32509;47.750;-3.396;2023-08-12T10:01:14;20.10;99.90
46758;DHT22;32509;47.750;-3.396;2023-08-12T10:03:43;20.20;99.90
46758;DHT22;32509;47.750;-3.396;2023-08-12T10:06:11;20.20;99.90
46758;DHT22;32509;47.750;-3.396;2023-08-12T10:08:41;20.30;99.90
46758;DHT22;32509;47.750;-3.396;2023-08-12T10:11:07;20.30;99.90
46758;DHT22;32509;47.750;-3.396;2023-08-12T10:13:34;20.30;99.90
46758;DHT22;32509;47.750;-3.396;2023-08-12T10:16:00;20.40;99.90
46758;DHT22;32509;47.750;-3.396;2023-08-12T10:18:28;20.40;99.90
46758;DHT22;32509;47.750;-3.396;2023-08-12T10:20:57;20.40;99.90
46758;DHT22;32509;47.750;-3.396;2023-08-12T10:23:24;20.50;99.90
46758;DHT22;32509;47.750;-3.396;2023-08-12T10:25:53;20.50;99.90
46758;DHT22;32509;47.750;-3.396;2023-08-12T10:28:20;20.60;99.90
46758;DHT22;32509;47.750;-3.396;2023-08-12T10:30:46;20.60;99.90
46758;DHT22;32509;47.750;-3.396;2023-08-12T10:33:14;20.60;99.90
46758;DHT22;32509;47.750;-3.396;2023-08-12T10:35:48;20.60;99.90
46758;DHT22;32509;47.750;-3.396;2023-08-12T10:38:19;20.60;99.90
46758;DHT22;32509;47.750;-3.396;2023-08-12T10:40:44;20.60;99.90
46758;DHT22;32509;47.750;-3.396;2023-08-12T10:43:14;20.70;99.90
46758;DHT22;32509;47.750;-3.396;2023-08-12T10:45:52;20.60;99.90
46758;DHT22;32509;47.750;-3.396;2023-08-12T10:50:51;20.70;99.90
46758;DHT22;32509;47.750;-3.396;2023-08-12T10:55:53;20.80;99.90
46758;DHT22;32509;47.750;-3.396;2023-08-12T10:58:46;20.80;99.90
46758;DHT22;32509;47.750;-3.396;2023-08-12T11:01:19;20.80;99.90
46758;DHT22;32509;47.750;-3.396;2023-08-12T11:03:45;20.80;99.90
46758;DHT22;32509;47.750;-3.396;2023-08-12T11:06:12;20.80;99.90
46758;DHT22;32509;47.750;-3.396;2023-08-12T11:08:46;20.90;99.90
46758;DHT22;32509;47.750;-3.396;2023-08-12T11:11:27;20.90;99.90
46758;DHT22;32509;47.750;-3.396;2023-08-12T11:13:54;20.80;99.90
46758;DHT22;32509;47.750;-3.396;2023-08-12T11:16:39;20.90;99.90
46758;DHT22;32509;47.750;-3.396;2023-08-12T11:19:08;20.80;99.90
46758;DHT22;32509;47.750;-3.396;2023-08-12T11:21:36;20.90;99.90
46758;DHT22;32509;47.750;-3.396;2023-08-12T11:24:02;20.90;99.90
46758;DHT22;32509;47.750;-3.396;2023-08-12T11:26:28;20.90;99.90
46758;DHT22;32509;47.750;-3.396;2023-08-12T11:28:55;20.90;99.90
46758;DHT22;32509;47.750;-3.396;2023-08-12T11:31:21;20.90;99.90
46758;DHT22;32509;47.750;-3.396;2023-08-12T11:33:48;20.90;99.90
46758;DHT22;32509;47.750;-3.396;2023-08-12T11:36:14;20.80;99.90
46758;DHT22;32509;47.750;-3.396;2023-08-12T11:38:42;20.90;99.90
46758;DHT22;32509;47.750;-3.396;2023-08-12T11:41:08;20.90;99.90
46758;DHT22;32509;47.750;-3.396;2023-08-12T11:43:34;20.80;99.90
46758;DHT22;32509;47.750;-3.396;2023-08-12T11:45:59;20.80;99.90
46758;DHT22;32509;47.750;-3.396;2023-08-12T11:48:27;20.80;99.90
46758;DHT22;32509;47.750;-3.396;2023-08-12T11:50:53;20.80;99.90
46758;DHT22;32509;47.750;-3.396;2023-08-12T11:53:20;20.80;99.90
46758;DHT22;32509;47.750;-3.396;2023-08-12T11:55:46;20.90;99.90
46758;DHT22;32509;47.750;-3.396;2023-08-12T11:58:14;20.90;99.90
46758;DHT22;32509;47.750;-3.396;2023-08-12T12:00:46;20.90;99.90
46758;DHT22;32509;47.750;-3.396;2023-08-12T12:03:12;20.90;99.90
46758;DHT22;32509;47.750;-3.396;2023-08-12T12:05:40;21.00;99.90
46758;DHT22;32509;47.750;-3.396;2023-08-12T12:08:07;21.00;99.90
46758;DHT22;32509;47.750;-3.396;2023-08-12T12:10:35;21.00;99.90
46758;DHT22;32509;47.750;-3.396;2023-08-12T12:13:03;20.90;99.90
46758;DHT22;32509;47.750;-3.396;2023-08-12T12:15:29;20.90;99.90
46758;DHT22;32509;47.750;-3.396;2023-08-12T12:17:55;20.90;99.90
46758;DHT22;32509;47.750;-3.396;2023-08-12T12:20:21;20.90;99.90
46758;DHT22;32509;47.750;-3.396;2023-08-12T12:22:47;20.90;99.90
46758;DHT22;32509;47.750;-3.396;2023-08-12T12:25:15;20.90;99.90
46758;DHT22;32509;47.750;-3.396;2023-08-12T12:27:45;20.90;99.90
46758;DHT22;32509;47.750;-3.396;2023-08-12T12:30:13;20.90;99.90
46758;DHT22;32509;47.750;-3.396;2023-08-12T12:32:39;20.90;99.90
46758;DHT22;32509;47.750;-3.396;2023-08-12T12:35:06;20.90;99.90
46758;DHT22;32509;47.750;-3.396;2023-08-12T12:37:33;20.90;99.90
46758;DHT22;32509;47.750;-3.396;2023-08-12T12:39:58;20.90;99.90
46758;DHT22;32509;47.750;-3.396;2023-08-12T12:42:24;20.90;99.90
46758;DHT22;32509;47.750;-3.396;2023-08-12T12:44:50;20.90;99.90
46758;DHT22;32509;47.750;-3.396;2023-08-12T12:47:16;20.90;99.90
46758;DHT22;32509;47.750;-3.396;2023-08-12T12:49:42;20.90;99.90
46758;DHT22;32509;47.750;-3.396;2023-08-12T12:52:08;20.90;99.90
46758;DHT22;32509;47.750;-3.396;2023-08-12T12:54:34;20.90;99.90
46758;DHT22;32509;47.750;-3.396;2023-08-12T12:57:00;20.90;99.90
46758;DHT22;32509;47.750;-3.396;2023-08-12T12:59:27;20.90;99.90
46758;DHT22;32509;47.750;-3.396;2023-08-12T13:01:52;20.90;99.90
46758;DHT22;32509;47.750;-3.396;2023-08-12T13:04:19;20.90;99.90
46758;DHT22;32509;47.750;-3.396;2023-08-12T13:06:47;20.90;99.90
46758;DHT22;32509;47.750;-3.396;2023-08-12T13:09:16;20.90;99.90
46758;DHT22;32509;47.750;-3.396;2023-08-12T13:11:41;20.90;99.90
46758;DHT22;32509;47.750;-3.396;2023-08-12T13:14:07;20.90;99.90
46758;DHT22;32509;47.750;-3.396;2023-08-12T13:16:33;20.90;99.90
46758;DHT22;32509;47.750;-3.396;2023-08-12T13:18:59;20.90;99.90
46758;DHT22;32509;47.750;-3.396;2023-08-12T13:21:26;20.90;99.90
46758;DHT22;32509;47.750;-3.396;2023-08-12T13:23:52;21.00;99.90
46758;DHT22;32509;47.750;-3.396;2023-08-12T13:26:19;21.00;99.90
46758;DHT22;32509;47.750;-3.396;2023-08-12T13:28:45;21.00;99.90
46758;DHT22;32509;47.750;-3.396;2023-08-12T13:31:11;21.00;99.90
46758;DHT22;32509;47.750;-3.396;2023-08-12T13:33:39;21.00;99.90
46758;DHT22;32509;47.750;-3.396;2023-08-12T13:36:05;21.00;99.90
46758;DHT22;32509;47.750;-3.396;2023-08-12T13:38:31;21.00;99.90
46758;DHT22;32509;47.750;-3.396;2023-08-12T13:40:57;21.00;99.90
46758;DHT22;32509;47.750;-3.396;2023-08-12T13:43:22;21.00;99.90
46758;DHT22;32509;47.750;-3.396;2023-08-12T13:45:48;21.00;99.90
46758;DHT22;32509;47.750;-3.396;2023-08-12T13:48:14;21.00;99.90
46758;DHT22;32509;47.750;-3.396;2023-08-12T13:50:40;21.00;99.90
46758;DHT22;32509;47.750;-3.396;2023-08-12T13:53:06;21.00;99.90
46758;DHT22;32509;47.750;-3.396;2023-08-12T13:55:32;21.00;99.90
46758;DHT22;32509;47.750;-3.396;2023-08-12T13:57:58;21.00;99.90
46758;DHT22;32509;47.750;-3.396;2023-08-12T14:00:23;21.00;99.90
46758;DHT22;32509;47.750;-3.396;2023-08-12T14:02:50;21.00;99.90
46758;DHT22;32509;47.750;-3.396;2023-08-12T14:05:16;21.00;99.90
46758;DHT22;32509;47.750;-3.396;2023-08-12T14:07:42;21.00;99.90
46758;DHT22;32509;47.750;-3.396;2023-08-12T14:10:08;21.10;99.90
46758;DHT22;32509;47.750;-3.396;2023-08-12T14:12:34;21.10;99.90
46758;DHT22;32509;47.750;-3.396;2023-08-12T14:15:00;21.10;99.90
46758;DHT22;32509;47.750;-3.396;2023-08-12T14:17:26;21.10;99.90
46758;DHT22;32509;47.750;-3.396;2023-08-12T14:19:52;21.10;99.90
46758;DHT22;32509;47.750;-3.396;2023-08-12T14:22:21;21.10;99.90
46758;DHT22;32509;47.750;-3.396;2023-08-12T14:24:47;21.10;99.90
46758;DHT22;32509;47.750;-3.396;2023-08-12T14:27:16;21.10;99.90
46758;DHT22;32509;47.750;-3.396;2023-08-12T14:29:45;21.10;99.90
46758;DHT22;32509;47.750;-3.396;2023-08-12T14:32:11;21.10;99.90
46758;DHT22;32509;47.750;-3.396;2023-08-12T14:34:37;21.10;99.90
46758;DHT22;32509;47.750;-3.396;2023-08-12T14:37:03;21.10;99.90
46758;DHT22;32509;47.750;-3.396;2023-08-12T14:39:29;21.10;99.90
46758;DHT22;32509;47.750;-3.396;2023-08-12T14:41:55;21.10;99.90
46758;DHT22;32509;47.750;-3.396;2023-08-12T14:44:20;21.00;99.90
46758;DHT22;32509;47.750;-3.396;2023-08-12T14:46:46;21.00;99.90
46758;DHT22;32509;47.750;-3.396;2023-08-12T14:49:12;21.00;99.90
46758;DHT22;32509;47.750;-3.396;2023-08-12T14:51:38;21.00;99.90
46758;DHT22;32509;47.750;-3.396;2023-08-12T14:54:04;21.00;99.90
46758;DHT22;32509;47.750;-3.396;2023-08-12T14:56:30;21.00;99.90
46758;DHT22;32509;47.750;-3.396;2023-08-12T14:58:55;21.00;99.90
46758;DHT22;32509;47.750;-3.396;2023-08-12T15:01:21;20.90;99.90
46758;DHT22;32509;47.750;-3.396;2023-08-12T15:03:49;21.00;99.90
46758;DHT22;32509;47.750;-3.396;2023-08-12T15:06:15;20.90;99.90
46758;DHT22;32509;47.750;-3.396;2023-08-12T15:08:40;20.90;99.90
46758;DHT22;32509;47.750;-3.396;2023-08-12T15:11:07;20.90;99.90
46758;DHT22;32509;47.750;-3.396;2023-08-12T15:13:32;20.90;99.90
46758;DHT22;32509;47.750;-3.396;2023-08-12T15:15:58;20.90;99.90
46758;DHT22;32509;47.750;-3.396;2023-08-12T15:18:24;20.90;99.90
46758;DHT22;32509;47.750;-3.396;2023-08-12T15:20:50;20.90;99.90